sensor_id;sensor_type;location;lat;lon;timestamp;pressure;altitude;pressure_sealevel;temperature;humidity
28701;BME280;15877;52.344;16.790;2023-07-13T00:02:25;100222.30;;;22.63;56.83
28701;BME280;15877;52.344;16.790;2023-07-13T00:04:59;100228.67;;;22.56;57.15
28701;BME280;15877;52.344;16.790;2023-07-13T00:07:31;100231.08;;;22.51;57.25
28701;BME280;15877;52.344;16.790;2023-07-13T00:10:05;100228.58;;;22.48;57.38
28701;BME280;15877;52.344;16.790;2023-07-13T00:12:39;100230.70;;;22.44;57.49
28701;BME280;15877;52.344;16.790;2023-07-13T00:15:13;100232.94;;;22.40;57.64
28701;BME280;15877;52.344;16.790;2023-07-13T00:17:49;100246.98;;;22.35;58.03
28701;BME280;15877;52.344;16.790;2023-07-13T00:20:23;100255.09;;;22.31;57.75
28701;BME280;15877;52.344;16.790;2023-07-13T00:22:56;100251.16;;;22.22;57.90
28701;BME280;15877;52.344;16.790;2023-07-13T00:25:28;100263.69;;;22.25;58.01
28701;BME280;15877;52.344;16.790;2023-07-13T00:28:01;100273.83;;;22.22;58.04
28701;BME280;15877;52.344;16.790;2023-07-13T00:30:34;100260.48;;;22.13;58.36
28701;BME280;15877;52.344;16.790;2023-07-13T00:33:07;100258.92;;;22.17;58.17
28701;BME280;15877;52.344;16.790;2023-07-13T00:35:47;100256.96;;;22.17;57.95
28701;BME280;15877;52.344;16.790;2023-07-13T00:38:20;100255.39;;;22.16;57.94
28701;BME280;15877;52.344;16.790;2023-07-13T00:40:52;100252.45;;;22.13;58.20
28701;BME280;15877;52.344;16.790;2023-07-13T00:43:26;100245.77;;;22.12;58.12
28701;BME280;15877;52.344;16.790;2023-07-13T00:46:21;100240.46;;;22.12;58.26
28701;BME280;15877;52.344;16.790;2023-07-13T00:48:53;100235.78;;;22.11;58.42
28701;BME280;15877;52.344;16.790;2023-07-13T00:51:30;100226.23;;;22.07;58.72
28701;BME280;15877;52.344;16.790;2023-07-13T00:54:06;100240.23;;;22.11;58.66
28701;BME280;15877;52.344;16.790;2023-07-13T00:56:40;100239.27;;;22.08;58.71
28701;BME280;15877;52.344;16.790;2023-07-13T00:59:15;100241.02;;;22.06;58.88
28701;BME280;15877;52.344;16.790;2023-07-13T01:01:50;100236.36;;;22.05;59.05
28701;BME280;15877;52.344;16.790;2023-07-13T01:04:24;100243.52;;;22.06;59.11
28701;BME280;15877;52.344;16.790;2023-07-13T01:06:59;100241.64;;;22.05;59.12
28701;BME280;15877;52.344;16.790;2023-07-13T01:09:32;100248.95;;;22.06;59.08
28701;BME280;15877;52.344;16.790;2023-07-13T01:12:05;100250.54;;;22.07;59.61
28701;BME280;15877;52.344;16.790;2023-07-13T01:14:38;100255.13;;;22.08;59.63
28701;BME280;15877;52.344;16.790;2023-07-13T01:17:13;100257.39;;;22.08;59.96
28701;BME280;15877;52.344;16.790;2023-07-13T01:19:46;100256.33;;;22.08;59.98
28701;BME280;15877;52.344;16.790;2023-07-13T01:22:20;100246.29;;;22.00;59.70
28701;BME280;15877;52.344;16.790;2023-07-13T01:24:56;100260.84;;;22.09;59.72
28701;BME280;15877;52.344;16.790;2023-07-13T01:27:29;100260.52;;;22.11;60.05
28701;BME280;15877;52.344;16.790;2023-07-13T01:30:01;100266.52;;;22.10;60.14
28701;BME280;15877;52.344;16.790;2023-07-13T01:32:38;100264.88;;;22.09;59.84
28701;BME280;15877;52.344;16.790;2023-07-13T01:35:12;100263.80;;;22.10;60.30
28701;BME280;15877;52.344;16.790;2023-07-13T01:37:45;100260.23;;;22.10;60.32
28701;BME280;15877;52.344;16.790;2023-07-13T01:40:19;100261.94;;;22.10;60.65
28701;BME280;15877;52.344;16.790;2023-07-13T01:42:51;100251.63;;;22.11;60.63
28701;BME280;15877;52.344;16.790;2023-07-13T01:45:24;100249.52;;;22.12;60.71
28701;BME280;15877;52.344;16.790;2023-07-13T01:47:56;100246.89;;;22.13;60.61
28701;BME280;15877;52.344;16.790;2023-07-13T01:50:32;100247.17;;;22.15;60.02
28701;BME280;15877;52.344;16.790;2023-07-13T01:53:05;100246.34;;;22.21;57.86
28701;BME280;15877;52.344;16.790;2023-07-13T01:55:38;100244.80;;;22.18;58.47
28701;BME280;15877;52.344;16.790;2023-07-13T01:58:11;100240.16;;;22.19;58.26
28701;BME280;15877;52.344;16.790;2023-07-13T02:00:44;100241.10;;;22.21;57.64
28701;BME280;15877;52.344;16.790;2023-07-13T02:03:16;100239.33;;;22.23;57.42
28701;BME280;15877;52.344;16.790;2023-07-13T02:05:49;100238.01;;;22.30;56.17
28701;BME280;15877;52.344;16.790;2023-07-13T02:08:21;100234.88;;;22.31;55.52
28701;BME280;15877;52.344;16.790;2023-07-13T02:10:53;100233.45;;;22.30;55.50
28701;BME280;15877;52.344;16.790;2023-07-13T02:13:25;100239.38;;;22.19;56.04
28701;BME280;15877;52.344;16.790;2023-07-13T02:15:58;100240.47;;;22.20;55.92
28701;BME280;15877;52.344;16.790;2023-07-13T02:18:30;100236.59;;;22.20;55.89
28701;BME280;15877;52.344;16.790;2023-07-13T02:21:02;100237.10;;;22.24;55.87
28701;BME280;15877;52.344;16.790;2023-07-13T02:23:35;100242.93;;;22.27;55.71
28701;BME280;15877;52.344;16.790;2023-07-13T02:26:08;100243.58;;;22.36;55.27
28701;BME280;15877;52.344;16.790;2023-07-13T02:28:40;100237.27;;;22.38;54.85
28701;BME280;15877;52.344;16.790;2023-07-13T02:31:14;100237.98;;;22.39;55.34
28701;BME280;15877;52.344;16.790;2023-07-13T02:33:49;100243.05;;;22.45;55.53
28701;BME280;15877;52.344;16.790;2023-07-13T02:36:22;100246.25;;;22.52;54.95
28701;BME280;15877;52.344;16.790;2023-07-13T02:38:55;100249.95;;;22.56;54.36
28701;BME280;15877;52.344;16.790;2023-07-13T02:41:27;100248.35;;;22.58;53.85
28701;BME280;15877;52.344;16.790;2023-07-13T02:44:01;100256.98;;;22.57;54.09
28701;BME280;15877;52.344;16.790;2023-07-13T02:46:36;100262.38;;;22.58;54.68
28701;BME280;15877;52.344;16.790;2023-07-13T02:49:09;100263.21;;;22.59;54.42
28701;BME280;15877;52.344;16.790;2023-07-13T02:51:41;100262.07;;;22.59;54.95
28701;BME280;15877;52.344;16.790;2023-07-13T02:54:15;100263.61;;;22.65;54.92
28701;BME280;15877;52.344;16.790;2023-07-13T02:56:48;100253.56;;;22.62;55.25
28701;BME280;15877;52.344;16.790;2023-07-13T02:59:20;100246.40;;;22.61;55.48
28701;BME280;15877;52.344;16.790;2023-07-13T03:01:53;100239.85;;;22.63;55.72
28701;BME280;15877;52.344;16.790;2023-07-13T03:04:25;100252.17;;;22.63;55.74
28701;BME280;15877;52.344;16.790;2023-07-13T03:06:58;100252.34;;;22.62;56.27
28701;BME280;15877;52.344;16.790;2023-07-13T03:09:35;100256.65;;;22.62;56.39
28701;BME280;15877;52.344;16.790;2023-07-13T03:12:09;100255.95;;;22.61;56.56
28701;BME280;15877;52.344;16.790;2023-07-13T03:14:44;100255.80;;;22.60;57.20
28701;BME280;15877;52.344;16.790;2023-07-13T03:17:17;100258.14;;;22.61;57.17
28701;BME280;15877;52.344;16.790;2023-07-13T03:19:49;100256.92;;;22.55;57.15
28701;BME280;15877;52.344;16.790;2023-07-13T03:22:22;100254.02;;;22.53;57.26
28701;BME280;15877;52.344;16.790;2023-07-13T03:24:56;100274.29;;;22.62;57.11
28701;BME280;15877;52.344;16.790;2023-07-13T03:27:31;100265.23;;;22.64;56.67
28701;BME280;15877;52.344;16.790;2023-07-13T03:30:04;100268.84;;;22.63;57.00
28701;BME280;15877;52.344;16.790;2023-07-13T03:32:38;100262.17;;;22.61;57.17
28701;BME280;15877;52.344;16.790;2023-07-13T03:35:11;100261.28;;;22.59;57.63
28701;BME280;15877;52.344;16.790;2023-07-13T03:37:44;100257.16;;;22.58;57.93
28701;BME280;15877;52.344;16.790;2023-07-13T03:40:20;100262.58;;;22.58;58.08
28701;BME280;15877;52.344;16.790;2023-07-13T03:42:53;100266.09;;;22.63;57.76
28701;BME280;15877;52.344;16.790;2023-07-13T03:45:27;100269.13;;;22.64;57.69
28701;BME280;15877;52.344;16.790;2023-07-13T03:47:59;100268.27;;;22.63;57.95
28701;BME280;15877;52.344;16.790;2023-07-13T03:50:33;100271.33;;;22.61;58.97
28701;BME280;15877;52.344;16.790;2023-07-13T03:53:06;100273.35;;;22.66;58.57
28701;BME280;15877;52.344;16.790;2023-07-13T03:55:39;100271.75;;;22.68;58.52
28701;BME280;15877;52.344;16.790;2023-07-13T03:58:30;100279.66;;;22.66;59.09
28701;BME280;15877;52.344;16.790;2023-07-13T04:01:10;100282.16;;;22.66;59.19
28701;BME280;15877;52.344;16.790;2023-07-13T04:03:44;100281.44;;;22.66;59.31
28701;BME280;15877;52.344;16.790;2023-07-13T04:06:20;100280.05;;;22.66;59.41
28701;BME280;15877;52.344;16.790;2023-07-13T04:08:54;100280.30;;;22.64;60.42
28701;BME280;15877;52.344;16.790;2023-07-13T04:11:28;100287.29;;;22.66;61.06
28701;BME280;15877;52.344;16.790;2023-07-13T04:14:04;100287.00;;;22.67;61.08
28701;BME280;15877;52.344;16.790;2023-07-13T04:16:37;100289.27;;;22.67;61.06
28701;BME280;15877;52.344;16.790;2023-07-13T04:19:10;100290.11;;;22.66;61.39
28701;BME280;15877;52.344;16.790;2023-07-13T04:21:46;100296.24;;;22.69;61.72
28701;BME280;15877;52.344;16.790;2023-07-13T04:24:18;100286.05;;;22.75;61.35
28701;BME280;15877;52.344;16.790;2023-07-13T04:26:51;100293.73;;;22.72;61.79
28701;BME280;15877;52.344;16.790;2023-07-13T04:29:24;100296.64;;;22.72;63.10
28701;BME280;15877;52.344;16.790;2023-07-13T04:32:01;100297.52;;;22.72;64.10
28701;BME280;15877;52.344;16.790;2023-07-13T04:34:34;100304.66;;;22.75;64.59
28701;BME280;15877;52.344;16.790;2023-07-13T04:37:06;100304.91;;;22.77;64.46
28701;BME280;15877;52.344;16.790;2023-07-13T04:39:39;100297.52;;;22.81;63.45
28701;BME280;15877;52.344;16.790;2023-07-13T04:42:12;100299.83;;;22.84;63.83
28701;BME280;15877;52.344;16.790;2023-07-13T04:44:48;100298.62;;;22.87;63.70
28701;BME280;15877;52.344;16.790;2023-07-13T04:47:21;100303.27;;;22.91;63.82
28701;BME280;15877;52.344;16.790;2023-07-13T04:49:53;100304.66;;;22.93;63.60
28701;BME280;15877;52.344;16.790;2023-07-13T04:52:26;100305.51;;;22.94;63.18
28701;BME280;15877;52.344;16.790;2023-07-13T04:54:58;100308.10;;;22.94;63.29
28701;BME280;15877;52.344;16.790;2023-07-13T04:57:31;100309.35;;;22.96;63.68
28701;BME280;15877;52.344;16.790;2023-07-13T05:00:06;100310.73;;;22.96;63.70
28701;BME280;15877;52.344;16.790;2023-07-13T05:02:39;100310.44;;;22.98;63.71
28701;BME280;15877;52.344;16.790;2023-07-13T05:05:12;100315.54;;;22.98;64.23
28701;BME280;15877;52.344;16.790;2023-07-13T05:07:45;100322.00;;;22.98;63.98
28701;BME280;15877;52.344;16.790;2023-07-13T05:10:19;100327.23;;;22.99;63.48
28701;BME280;15877;52.344;16.790;2023-07-13T05:12:52;100326.62;;;22.98;63.37
28701;BME280;15877;52.344;16.790;2023-07-13T05:15:26;100333.98;;;22.98;63.50
28701;BME280;15877;52.344;16.790;2023-07-13T05:17:59;100335.46;;;22.97;64.00
28701;BME280;15877;52.344;16.790;2023-07-13T05:20:31;100336.52;;;22.97;64.01
28701;BME280;15877;52.344;16.790;2023-07-13T05:23:03;100335.35;;;22.96;63.75
28701;BME280;15877;52.344;16.790;2023-07-13T05:25:36;100337.11;;;22.96;63.87
28701;BME280;15877;52.344;16.790;2023-07-13T05:28:08;100338.25;;;22.96;63.87
28701;BME280;15877;52.344;16.790;2023-07-13T05:30:41;100344.59;;;22.95;64.00
28701;BME280;15877;52.344;16.790;2023-07-13T05:33:17;100346.84;;;22.96;63.70
28701;BME280;15877;52.344;16.790;2023-07-13T05:35:50;100353.86;;;22.96;63.81
28701;BME280;15877;52.344;16.790;2023-07-13T05:38:22;100360.31;;;22.94;63.68
28701;BME280;15877;52.344;16.790;2023-07-13T05:40:55;100365.27;;;22.86;63.94
28701;BME280;15877;52.344;16.790;2023-07-13T05:43:34;100359.25;;;22.84;64.22
28701;BME280;15877;52.344;16.790;2023-07-13T05:46:06;100368.98;;;22.84;64.51
28701;BME280;15877;52.344;16.790;2023-07-13T05:48:39;100373.26;;;22.84;64.82
28701;BME280;15877;52.344;16.790;2023-07-13T05:51:14;100378.10;;;22.84;65.45
28701;BME280;15877;52.344;16.790;2023-07-13T05:53:46;100380.50;;;22.88;65.02
28701;BME280;15877;52.344;16.790;2023-07-13T05:56:19;100368.20;;;22.79;64.95
28701;BME280;15877;52.344;16.790;2023-07-13T05:58:51;100376.93;;;22.88;64.71
28701;BME280;15877;52.344;16.790;2023-07-13T06:01:24;100380.52;;;22.87;64.90
28701;BME280;15877;52.344;16.790;2023-07-13T06:03:56;100388.55;;;22.81;65.32
28701;BME280;15877;52.344;16.790;2023-07-13T06:06:28;100390.08;;;22.73;65.68
28701;BME280;15877;52.344;16.790;2023-07-13T06:09:01;100391.95;;;22.67;65.91
28701;BME280;15877;52.344;16.790;2023-07-13T06:11:33;100402.02;;;22.72;65.91
28701;BME280;15877;52.344;16.790;2023-07-13T06:14:06;100405.91;;;22.71;66.17
28701;BME280;15877;52.344;16.790;2023-07-13T06:16:39;100408.86;;;22.69;66.58
28701;BME280;15877;52.344;16.790;2023-07-13T06:19:11;100425.69;;;22.70;67.88
28701;BME280;15877;52.344;16.790;2023-07-13T06:21:44;100427.77;;;22.73;67.57
28701;BME280;15877;52.344;16.790;2023-07-13T06:24:16;100425.25;;;22.80;67.38
28701;BME280;15877;52.344;16.790;2023-07-13T06:26:48;100424.36;;;22.85;67.35
28701;BME280;15877;52.344;16.790;2023-07-13T06:29:20;100425.73;;;22.91;66.94
28701;BME280;15877;52.344;16.790;2023-07-13T06:31:53;100424.21;;;22.96;66.73
28701;BME280;15877;52.344;16.790;2023-07-13T06:34:25;100430.39;;;22.98;66.66
28701;BME280;15877;52.344;16.790;2023-07-13T06:36:58;100430.52;;;23.05;67.00
28701;BME280;15877;52.344;16.790;2023-07-13T06:39:30;100430.83;;;23.08;66.88
28701;BME280;15877;52.344;16.790;2023-07-13T06:42:03;100427.56;;;23.17;66.23
28701;BME280;15877;52.344;16.790;2023-07-13T06:44:35;100429.63;;;23.19;66.48
28701;BME280;15877;52.344;16.790;2023-07-13T06:47:08;100428.64;;;23.22;66.26
28701;BME280;15877;52.344;16.790;2023-07-13T06:49:41;100425.91;;;23.24;66.36
28701;BME280;15877;52.344;16.790;2023-07-13T06:52:13;100422.17;;;23.28;66.65
28701;BME280;15877;52.344;16.790;2023-07-13T06:54:46;100420.52;;;23.32;66.24
28701;BME280;15877;52.344;16.790;2023-07-13T06:57:18;100407.95;;;23.30;67.12
28701;BME280;15877;52.344;16.790;2023-07-13T06:59:51;100418.05;;;23.41;66.64
28701;BME280;15877;52.344;16.790;2023-07-13T07:02:23;100413.89;;;23.39;65.73
28701;BME280;15877;52.344;16.790;2023-07-13T07:04:56;100428.91;;;23.51;65.04
28701;BME280;15877;52.344;16.790;2023-07-13T07:07:28;100430.45;;;23.51;65.38
28701;BME280;15877;52.344;16.790;2023-07-13T07:10:00;100426.87;;;23.54;65.44
28701;BME280;15877;52.344;16.790;2023-07-13T07:12:33;100427.80;;;23.60;65.70
28701;BME280;15877;52.344;16.790;2023-07-13T07:15:07;100428.04;;;23.66;66.39
28701;BME280;15877;52.344;16.790;2023-07-13T07:17:39;100430.95;;;23.71;65.37
28701;BME280;15877;52.344;16.790;2023-07-13T07:20:12;100427.63;;;23.79;64.71
28701;BME280;15877;52.344;16.790;2023-07-13T07:22:45;100417.87;;;23.82;65.37
28701;BME280;15877;52.344;16.790;2023-07-13T07:25:17;100422.05;;;23.81;65.85
28701;BME280;15877;52.344;16.790;2023-07-13T07:27:50;100409.20;;;23.77;65.65
28701;BME280;15877;52.344;16.790;2023-07-13T07:30:25;100426.31;;;23.89;64.80
28701;BME280;15877;52.344;16.790;2023-07-13T07:33:00;100415.60;;;23.87;63.94
28701;BME280;15877;52.344;16.790;2023-07-13T07:35:35;100430.69;;;24.00;64.66
28701;BME280;15877;52.344;16.790;2023-07-13T07:38:28;100428.48;;;24.05;65.40
28701;BME280;15877;52.344;16.790;2023-07-13T07:41:03;100417.56;;;24.02;65.08
28701;BME280;15877;52.344;16.790;2023-07-13T07:43:39;100422.30;;;24.19;64.04
28701;BME280;15877;52.344;16.790;2023-07-13T07:46:11;100417.40;;;24.24;63.94
28701;BME280;15877;52.344;16.790;2023-07-13T07:48:44;100422.13;;;24.33;63.04
28701;BME280;15877;52.344;16.790;2023-07-13T07:51:16;100426.45;;;24.43;62.77
28701;BME280;15877;52.344;16.790;2023-07-13T07:53:49;100430.30;;;24.49;62.65
28701;BME280;15877;52.344;16.790;2023-07-13T07:56:21;100432.80;;;24.53;62.40
28701;BME280;15877;52.344;16.790;2023-07-13T07:58:56;100439.39;;;24.56;62.92
28701;BME280;15877;52.344;16.790;2023-07-13T08:01:32;100438.23;;;24.59;63.67
28701;BME280;15877;52.344;16.790;2023-07-13T08:04:07;100434.95;;;24.67;62.32
28701;BME280;15877;52.344;16.790;2023-07-13T08:07:00;100439.11;;;24.72;62.63
28701;BME280;15877;52.344;16.790;2023-07-13T08:09:33;100438.87;;;24.79;63.22
28701;BME280;15877;52.344;16.790;2023-07-13T08:12:07;100435.53;;;24.83;63.47
28701;BME280;15877;52.344;16.790;2023-07-13T08:14:42;100432.23;;;24.85;63.35
28701;BME280;15877;52.344;16.790;2023-07-13T08:17:23;100437.15;;;24.88;63.04
28701;BME280;15877;52.344;16.790;2023-07-13T08:19:56;100436.40;;;24.93;61.66
28701;BME280;15877;52.344;16.790;2023-07-13T08:22:29;100439.20;;;24.92;61.70
28701;BME280;15877;52.344;16.790;2023-07-13T08:25:02;100440.95;;;24.95;61.85
28701;BME280;15877;52.344;16.790;2023-07-13T08:27:34;100447.29;;;24.99;60.66
28701;BME280;15877;52.344;16.790;2023-07-13T08:30:08;100441.60;;;25.01;62.13
28701;BME280;15877;52.344;16.790;2023-07-13T08:32:41;100444.34;;;25.02;62.22
28701;BME280;15877;52.344;16.790;2023-07-13T08:35:13;100446.17;;;25.03;61.46
28701;BME280;15877;52.344;16.790;2023-07-13T08:37:46;100445.27;;;25.03;60.68
28701;BME280;15877;52.344;16.790;2023-07-13T08:40:22;100447.63;;;25.07;61.19
28701;BME280;15877;52.344;16.790;2023-07-13T08:42:58;100450.14;;;25.10;61.82
28701;BME280;15877;52.344;16.790;2023-07-13T08:45:32;100449.81;;;25.12;60.98
28701;BME280;15877;52.344;16.790;2023-07-13T08:48:12;100445.82;;;25.10;60.90
28701;BME280;15877;52.344;16.790;2023-07-13T08:51:00;100440.63;;;25.08;61.02
28701;BME280;15877;52.344;16.790;2023-07-13T08:53:39;100446.35;;;25.06;61.20
28701;BME280;15877;52.344;16.790;2023-07-13T08:56:18;100438.27;;;25.04;61.76
28701;BME280;15877;52.344;16.790;2023-07-13T08:58:56;100435.80;;;25.06;61.68
28701;BME280;15877;52.344;16.790;2023-07-13T09:01:36;100425.29;;;24.99;62.50
28701;BME280;15877;52.344;16.790;2023-07-13T09:04:16;100433.89;;;25.08;61.96
28701;BME280;15877;52.344;16.790;2023-07-13T09:07:01;100438.52;;;25.10;60.82
28701;BME280;15877;52.344;16.790;2023-07-13T09:09:47;100443.55;;;25.15;60.37
28701;BME280;15877;52.344;16.790;2023-07-13T09:12:30;100439.83;;;25.16;60.35
28701;BME280;15877;52.344;16.790;2023-07-13T09:15:21;100441.81;;;25.15;61.49
28701;BME280;15877;52.344;16.790;2023-07-13T09:17:59;100441.67;;;25.23;61.32
28701;BME280;15877;52.344;16.790;2023-07-13T09:20:36;100443.05;;;25.30;60.49
28701;BME280;15877;52.344;16.790;2023-07-13T09:23:15;100442.15;;;25.32;61.36
28701;BME280;15877;52.344;16.790;2023-07-13T09:25:50;100446.83;;;25.38;60.81
28701;BME280;15877;52.344;16.790;2023-07-13T09:28:28;100445.68;;;25.38;60.36
28701;BME280;15877;52.344;16.790;2023-07-13T09:31:04;100445.61;;;25.56;60.73
28701;BME280;15877;52.344;16.790;2023-07-13T09:33:37;100440.01;;;25.73;60.15
28701;BME280;15877;52.344;16.790;2023-07-13T09:36:22;100446.84;;;25.73;59.72
28701;BME280;15877;52.344;16.790;2023-07-13T09:39:02;100443.56;;;25.77;59.74
28701;BME280;15877;52.344;16.790;2023-07-13T09:41:49;100449.90;;;26.04;58.31
28701;BME280;15877;52.344;16.790;2023-07-13T09:44:31;100448.83;;;26.06;58.77
28701;BME280;15877;52.344;16.790;2023-07-13T09:47:17;100446.53;;;26.16;57.05
28701;BME280;15877;52.344;16.790;2023-07-13T09:49:55;100449.71;;;26.33;57.11
28701;BME280;15877;52.344;16.790;2023-07-13T09:52:43;100447.41;;;26.41;57.07
28701;BME280;15877;52.344;16.790;2023-07-13T09:55:31;100445.16;;;26.57;56.97
28701;BME280;15877;52.344;16.790;2023-07-13T09:58:08;100437.58;;;26.47;56.57
28701;BME280;15877;52.344;16.790;2023-07-13T10:00:43;100437.49;;;26.68;56.10
28701;BME280;15877;52.344;16.790;2023-07-13T10:03:20;100447.83;;;26.72;55.24
28701;BME280;15877;52.344;16.790;2023-07-13T10:05:53;100445.97;;;26.92;54.93
28701;BME280;15877;52.344;16.790;2023-07-13T10:08:28;100435.47;;;27.04;54.61
28701;BME280;15877;52.344;16.790;2023-07-13T10:11:11;100444.81;;;27.24;54.38
28701;BME280;15877;52.344;16.790;2023-07-13T10:13:53;100450.31;;;27.41;54.29
28701;BME280;15877;52.344;16.790;2023-07-13T10:16:29;100453.63;;;27.47;53.07
28701;BME280;15877;52.344;16.790;2023-07-13T10:19:07;100461.13;;;27.36;52.68
28701;BME280;15877;52.344;16.790;2023-07-13T10:21:50;100455.92;;;27.22;53.09
28701;BME280;15877;52.344;16.790;2023-07-13T10:24:24;100440.95;;;27.03;53.77
28701;BME280;15877;52.344;16.790;2023-07-13T10:27:00;100456.54;;;27.01;56.14
28701;BME280;15877;52.344;16.790;2023-07-13T10:29:38;100454.73;;;26.91;55.49
28701;BME280;15877;52.344;16.790;2023-07-13T10:32:13;100458.08;;;26.84;53.92
28701;BME280;15877;52.344;16.790;2023-07-13T10:34:48;100465.28;;;26.77;54.09
28701;BME280;15877;52.344;16.790;2023-07-13T10:37:26;100461.17;;;26.80;53.48
28701;BME280;15877;52.344;16.790;2023-07-13T10:40:00;100449.95;;;26.81;53.13
28701;BME280;15877;52.344;16.790;2023-07-13T10:42:37;100459.11;;;26.88;53.04
28701;BME280;15877;52.344;16.790;2023-07-13T10:45:16;100460.23;;;27.05;53.88
28701;BME280;15877;52.344;16.790;2023-07-13T10:47:51;100459.64;;;27.40;53.60
28701;BME280;15877;52.344;16.790;2023-07-13T10:50:29;100462.52;;;27.47;52.88
28701;BME280;15877;52.344;16.790;2023-07-13T10:53:16;100457.54;;;27.43;52.06
28701;BME280;15877;52.344;16.790;2023-07-13T10:56:00;100455.14;;;27.49;52.44
28701;BME280;15877;52.344;16.790;2023-07-13T10:58:36;100453.10;;;27.73;51.82
28701;BME280;15877;52.344;16.790;2023-07-13T11:01:13;100450.13;;;27.74;50.85
28701;BME280;15877;52.344;16.790;2023-07-13T11:03:54;100453.58;;;27.56;51.00
28701;BME280;15877;52.344;16.790;2023-07-13T11:06:36;100453.55;;;27.31;48.47
28701;BME280;15877;52.344;16.790;2023-07-13T11:09:32;100453.33;;;27.21;48.24
28701;BME280;15877;52.344;16.790;2023-07-13T11:15:13;100447.23;;;27.32;49.65
28701;BME280;15877;52.344;16.790;2023-07-13T11:17:53;100451.98;;;27.32;50.23
28701;BME280;15877;52.344;16.790;2023-07-13T11:20:38;100452.95;;;27.33;49.51
28701;BME280;15877;52.344;16.790;2023-07-13T11:23:31;100454.34;;;27.22;48.66
28701;BME280;15877;52.344;16.790;2023-07-13T11:26:13;100454.22;;;27.13;48.85
28701;BME280;15877;52.344;16.790;2023-07-13T11:28:57;100446.79;;;27.03;47.93
28701;BME280;15877;52.344;16.790;2023-07-13T11:31:34;100449.35;;;26.91;48.36
28701;BME280;15877;52.344;16.790;2023-07-13T11:34:14;100452.05;;;26.83;48.50
28701;BME280;15877;52.344;16.790;2023-07-13T11:36:48;100452.73;;;26.70;45.44
28701;BME280;15877;52.344;16.790;2023-07-13T11:39:24;100452.61;;;26.46;43.58
28701;BME280;15877;52.344;16.790;2023-07-13T11:42:03;100455.58;;;26.43;42.69
28701;BME280;15877;52.344;16.790;2023-07-13T11:44:41;100447.33;;;26.32;42.25
28701;BME280;15877;52.344;16.790;2023-07-13T11:47:31;100446.70;;;26.27;41.67
28701;BME280;15877;52.344;16.790;2023-07-13T11:50:16;100445.83;;;26.48;41.86
28701;BME280;15877;52.344;16.790;2023-07-13T11:52:50;100446.23;;;26.66;41.49
28701;BME280;15877;52.344;16.790;2023-07-13T11:55:24;100443.91;;;26.87;40.61
28701;BME280;15877;52.344;16.790;2023-07-13T11:58:00;100444.27;;;27.18;40.29
28701;BME280;15877;52.344;16.790;2023-07-13T12:00:34;100445.30;;;27.40;41.32
28701;BME280;15877;52.344;16.790;2023-07-13T12:03:07;100450.33;;;27.53;40.17
28701;BME280;15877;52.344;16.790;2023-07-13T12:05:56;100446.58;;;27.49;39.33
28701;BME280;15877;52.344;16.790;2023-07-13T12:08:37;100442.44;;;27.59;39.44
28701;BME280;15877;52.344;16.790;2023-07-13T12:11:17;100435.02;;;27.44;38.97
28701;BME280;15877;52.344;16.790;2023-07-13T12:13:51;100423.48;;;27.39;40.09
28701;BME280;15877;52.344;16.790;2023-07-13T12:16:28;100441.00;;;27.62;40.03
28701;BME280;15877;52.344;16.790;2023-07-13T12:19:02;100444.45;;;27.94;39.42
28701;BME280;15877;52.344;16.790;2023-07-13T12:21:36;100441.15;;;28.22;39.68
28701;BME280;15877;52.344;16.790;2023-07-13T12:24:16;100429.86;;;28.40;39.24
28701;BME280;15877;52.344;16.790;2023-07-13T12:26:54;100437.91;;;28.55;37.34
28701;BME280;15877;52.344;16.790;2023-07-13T12:29:28;100440.75;;;28.36;37.90
28701;BME280;15877;52.344;16.790;2023-07-13T12:32:00;100444.05;;;28.16;37.33
28701;BME280;15877;52.344;16.790;2023-07-13T12:34:32;100453.46;;;27.83;37.06
28701;BME280;15877;52.344;16.790;2023-07-13T12:37:22;100449.11;;;27.53;36.55
28701;BME280;15877;52.344;16.790;2023-07-13T12:39:54;100449.16;;;27.48;37.03
28701;BME280;15877;52.344;16.790;2023-07-13T12:42:28;100447.60;;;27.33;36.95
28701;BME280;15877;52.344;16.790;2023-07-13T12:45:01;100450.67;;;27.22;37.45
28701;BME280;15877;52.344;16.790;2023-07-13T12:47:41;100442.30;;;27.33;37.45
28701;BME280;15877;52.344;16.790;2023-07-13T12:50:17;100437.69;;;27.56;37.22
28701;BME280;15877;52.344;16.790;2023-07-13T12:52:54;100436.40;;;27.80;37.40
28701;BME280;15877;52.344;16.790;2023-07-13T12:55:29;100435.98;;;27.83;37.79
28701;BME280;15877;52.344;16.790;2023-07-13T12:58:06;100432.33;;;28.09;37.41
28701;BME280;15877;52.344;16.790;2023-07-13T13:00:47;100435.89;;;27.82;35.78
28701;BME280;15877;52.344;16.790;2023-07-13T13:03:28;100443.84;;;27.86;35.75
28701;BME280;15877;52.344;16.790;2023-07-13T13:06:05;100438.86;;;28.11;35.20
28701;BME280;15877;52.344;16.790;2023-07-13T13:08:38;100439.05;;;28.02;35.28
28701;BME280;15877;52.344;16.790;2023-07-13T13:11:11;100436.22;;;27.90;35.02
28701;BME280;15877;52.344;16.790;2023-07-13T13:13:47;100432.67;;;27.89;35.74
28701;BME280;15877;52.344;16.790;2023-07-13T13:16:22;100424.88;;;27.82;34.94
28701;BME280;15877;52.344;16.790;2023-07-13T13:18:57;100422.30;;;27.94;35.33
28701;BME280;15877;52.344;16.790;2023-07-13T13:21:31;100410.84;;;28.21;35.29
28701;BME280;15877;52.344;16.790;2023-07-13T13:24:08;100424.77;;;28.47;34.79
28701;BME280;15877;52.344;16.790;2023-07-13T13:26:43;100418.50;;;28.43;34.28